sensor_id;sensor_type;location;lat;lon;timestamp;pressure;altitude;pressure_sealevel;temperature;humidity
64019;BME280;66942;52.138;5.216;2023-04-27T00:01:33;102188.0;;;7.73;53.98
64019;BME280;66942;52.138;5.216;2023-04-27T00:04:45;102189.0;;;7.85;53.36
64019;BME280;66942;52.138;5.216;2023-04-27T00:06:22;102188.0;;;7.89;53.17
64019;BME280;66942;52.138;5.216;2023-04-27T00:07:58;102188.0;;;7.89;53.31
64019;BME280;66942;52.138;5.216;2023-04-27T00:11:10;102186.0;;;7.8;53.31
64019;BME280;66942;52.138;5.216;2023-04-27T00:12:46;102190.0;;;7.89;52.88
64019;BME280;66942;52.138;5.216;2023-04-27T00:14:23;102184.0;;;7.68;53.43
64019;BME280;66942;52.138;5.216;2023-04-27T00:17:36;102192.0;;;7.64;53.8
64019;BME280;66942;52.138;5.216;2023-04-27T00:19:12;102186.0;;;7.61;54.07
64019;BME280;66942;52.138;5.216;2023-04-27T00:20:48;102189.0;;;7.7;53.28
64019;BME280;66942;52.138;5.216;2023-04-27T00:22:24;102189.0;;;7.66;53.42
64019;BME280;66942;52.138;5.216;2023-04-27T00:25:37;102187.0;;;7.83;52.81
64019;BME280;66942;52.138;5.216;2023-04-27T00:27:13;102188.0;;;7.66;53.72
64019;BME280;66942;52.138;5.216;2023-04-27T00:28:50;102187.0;;;7.53;53.9
64019;BME280;66942;52.138;5.216;2023-04-27T00:32:02;102188.0;;;7.71;52.91
64019;BME280;66942;52.138;5.216;2023-04-27T00:33:38;102187.0;;;7.7;52.99
64019;BME280;66942;52.138;5.216;2023-04-27T00:35:14;102183.0;;;7.53;54.27
64019;BME280;66942;52.138;5.216;2023-04-27T00:38:26;102186.0;;;7.51;53.78
64019;BME280;66942;52.138;5.216;2023-04-27T00:40:04;102184.0;;;7.48;53.9
64019;BME280;66942;52.138;5.216;2023-04-27T00:41:41;102181.0;;;7.54;53.36
64019;BME280;66942;52.138;5.216;2023-04-27T00:43:17;102187.0;;;7.57;53.04
64019;BME280;66942;52.138;5.216;2023-04-27T00:46:32;102195.0;;;7.47;53.16
64019;BME280;66942;52.138;5.216;2023-04-27T00:48:09;102191.0;;;7.46;53.03
64019;BME280;66942;52.138;5.216;2023-04-27T00:49:46;102186.0;;;7.51;53.02
64019;BME280;66942;52.138;5.216;2023-04-27T00:52:59;102187.0;;;7.46;53.02
64019;BME280;66942;52.138;5.216;2023-04-27T00:54:37;102189.0;;;7.36;53.2
64019;BME280;66942;52.138;5.216;2023-04-27T00:56:13;102189.0;;;7.24;53.43
64019;BME280;66942;52.138;5.216;2023-04-27T00:59:25;102183.0;;;7.31;53.4
64019;BME280;66942;52.138;5.216;2023-04-27T01:01:01;102178.0;;;7.29;52.96
64019;BME280;66942;52.138;5.216;2023-04-27T01:02:39;102173.0;;;7.29;53.16
64019;BME280;66942;52.138;5.216;2023-04-27T01:04:15;102172.0;;;7.61;52.38
64019;BME280;66942;52.138;5.216;2023-04-27T01:07:28;102163.0;;;7.79;51.92
64019;BME280;66942;52.138;5.216;2023-04-27T01:09:04;102173.0;;;7.55;52.1
64019;BME280;66942;52.138;5.216;2023-04-27T01:10:40;102172.0;;;7.51;52.39
64019;BME280;66942;52.138;5.216;2023-04-27T01:13:53;102173.0;;;7.36;52.57
64019;BME280;66942;52.138;5.216;2023-04-27T01:15:30;102175.0;;;7.47;52.25
64019;BME280;66942;52.138;5.216;2023-04-27T01:17:06;102177.0;;;7.25;52.56
64019;BME280;66942;52.138;5.216;2023-04-27T01:20:18;102180.0;;;7.11;52.96
64019;BME280;66942;52.138;5.216;2023-04-27T01:21:54;102178.0;;;7.25;52.62
64019;BME280;66942;52.138;5.216;2023-04-27T01:23:31;102182.0;;;7.15;52.54
64019;BME280;66942;52.138;5.216;2023-04-27T01:25:07;102187.0;;;7.42;52.42
64019;BME280;66942;52.138;5.216;2023-04-27T01:28:19;102188.0;;;7.69;51.52
64019;BME280;66942;52.138;5.216;2023-04-27T01:29:55;102191.0;;;7.3;52.62
64019;BME280;66942;52.138;5.216;2023-04-27T01:31:31;102184.0;;;7.26;52.54
64019;BME280;66942;52.138;5.216;2023-04-27T01:34:44;102177.0;;;7.2;52.42
64019;BME280;66942;52.138;5.216;2023-04-27T01:36:20;102174.0;;;6.95;53.56
64019;BME280;66942;52.138;5.216;2023-04-27T01:37:57;102174.0;;;7.06;53.08
64019;BME280;66942;52.138;5.216;2023-04-27T01:41:09;102167.0;;;7.28;52.38
64019;BME280;66942;52.138;5.216;2023-04-27T01:42:45;102168.0;;;7.24;52.37
64019;BME280;66942;52.138;5.216;2023-04-27T01:44:21;102165.0;;;7.01;52.7
64019;BME280;66942;52.138;5.216;2023-04-27T01:47:40;102164.0;;;6.92;52.88
64019;BME280;66942;52.138;5.216;2023-04-27T01:49:16;102159.0;;;7.1;52.54
64019;BME280;66942;52.138;5.216;2023-04-27T01:50:53;102166.0;;;6.88;53.08
64019;BME280;66942;52.138;5.216;2023-04-27T01:52:29;102160.0;;;6.89;52.93
64019;BME280;66942;52.138;5.216;2023-04-27T01:55:42;102159.0;;;6.94;53.12
64019;BME280;66942;52.138;5.216;2023-04-27T01:57:18;102162.0;;;6.93;53.09
64019;BME280;66942;52.138;5.216;2023-04-27T01:58:54;102156.0;;;7.31;51.9
64019;BME280;66942;52.138;5.216;2023-04-27T02:02:07;102156.0;;;7.19;52.28
64019;BME280;66942;52.138;5.216;2023-04-27T02:03:43;102160.0;;;6.92;53.01
64019;BME280;66942;52.138;5.216;2023-04-27T02:05:19;102155.0;;;6.9;52.69
64019;BME280;66942;52.138;5.216;2023-04-27T02:08:31;102158.0;;;6.72;52.8
64019;BME280;66942;52.138;5.216;2023-04-27T02:10:08;102161.0;;;6.67;53.49
64019;BME280;66942;52.138;5.216;2023-04-27T02:11:44;102165.0;;;6.81;52.93
64019;BME280;66942;52.138;5.216;2023-04-27T02:13:20;102161.0;;;6.73;53.06
64019;BME280;66942;52.138;5.216;2023-04-27T02:16:33;102158.0;;;6.73;53.25
64019;BME280;66942;52.138;5.216;2023-04-27T02:18:09;102161.0;;;6.79;53.16
64019;BME280;66942;52.138;5.216;2023-04-27T02:19:46;102158.0;;;6.78;53.17
64019;BME280;66942;52.138;5.216;2023-04-27T02:22:58;102163.0;;;6.76;53.27
64019;BME280;66942;52.138;5.216;2023-04-27T02:24:34;102162.0;;;6.78;53.0
64019;BME280;66942;52.138;5.216;2023-04-27T02:26:14;102164.0;;;6.68;53.47
64019;BME280;66942;52.138;5.216;2023-04-27T02:29:29;102160.0;;;6.58;53.35
64019;BME280;66942;52.138;5.216;2023-04-27T02:31:05;102160.0;;;6.75;53.16
64019;BME280;66942;52.138;5.216;2023-04-27T02:32:42;102158.0;;;6.77;52.95
64019;BME280;66942;52.138;5.216;2023-04-27T02:34:18;102157.0;;;6.95;52.39
64019;BME280;66942;52.138;5.216;2023-04-27T02:37:30;102155.0;;;7.02;52.25
64019;BME280;66942;52.138;5.216;2023-04-27T02:39:06;102151.0;;;6.79;52.75
64019;BME280;66942;52.138;5.216;2023-04-27T02:40:42;102147.0;;;6.96;52.46
64019;BME280;66942;52.138;5.216;2023-04-27T02:43:54;102145.0;;;6.85;52.57
64019;BME280;66942;52.138;5.216;2023-04-27T02:45:30;102144.0;;;6.83;52.61
64019;BME280;66942;52.138;5.216;2023-04-27T02:47:07;102147.0;;;6.76;53.2
64019;BME280;66942;52.138;5.216;2023-04-27T02:50:19;102146.0;;;6.73;53.43
64019;BME280;66942;52.138;5.216;2023-04-27T02:51:55;102145.0;;;6.77;53.28
64019;BME280;66942;52.138;5.216;2023-04-27T02:53:31;102141.0;;;6.75;53.25
64019;BME280;66942;52.138;5.216;2023-04-27T02:55:08;102138.0;;;6.54;53.38
64019;BME280;66942;52.138;5.216;2023-04-27T02:58:21;102144.0;;;6.59;53.41
64019;BME280;66942;52.138;5.216;2023-04-27T02:59:57;102144.0;;;6.61;53.73
64019;BME280;66942;52.138;5.216;2023-04-27T03:01:33;102144.0;;;6.58;53.49
64019;BME280;66942;52.138;5.216;2023-04-27T03:04:45;102146.0;;;6.64;53.87
64019;BME280;66942;52.138;5.216;2023-04-27T03:06:21;102149.0;;;6.71;53.47
64019;BME280;66942;52.138;5.216;2023-04-27T03:07:57;102147.0;;;6.81;53.63
64019;BME280;66942;52.138;5.216;2023-04-27T03:11:09;102147.0;;;6.68;53.13
64019;BME280;66942;52.138;5.216;2023-04-27T03:12:46;102148.0;;;6.71;53.65
64019;BME280;66942;52.138;5.216;2023-04-27T03:14:22;102150.0;;;6.63;53.73
64019;BME280;66942;52.138;5.216;2023-04-27T03:17:34;102155.0;;;6.59;53.8
64019;BME280;66942;52.138;5.216;2023-04-27T03:19:10;102155.0;;;6.66;53.81
64019;BME280;66942;52.138;5.216;2023-04-27T03:20:46;102155.0;;;6.76;53.32
64019;BME280;66942;52.138;5.216;2023-04-27T03:22:23;102155.0;;;6.79;53.21
64019;BME280;66942;52.138;5.216;2023-04-27T03:25:35;102158.0;;;6.64;53.87
64019;BME280;66942;52.138;5.216;2023-04-27T03:27:11;102157.0;;;6.8;53.46
64019;BME280;66942;52.138;5.216;2023-04-27T03:28:47;102156.0;;;6.81;53.23
64019;BME280;66942;52.138;5.216;2023-04-27T03:31:59;102157.0;;;6.88;53.14
64019;BME280;66942;52.138;5.216;2023-04-27T03:33:35;102155.0;;;6.8;53.42
64019;BME280;66942;52.138;5.216;2023-04-27T03:35:12;102152.0;;;6.86;53.14
64019;BME280;66942;52.138;5.216;2023-04-27T03:38:26;102155.0;;;6.7;53.83
64019;BME280;66942;52.138;5.216;2023-04-27T03:40:03;102152.0;;;6.72;53.38
64019;BME280;66942;52.138;5.216;2023-04-27T03:41:40;102152.0;;;6.68;53.47
64019;BME280;66942;52.138;5.216;2023-04-27T03:43:16;102149.0;;;6.7;53.5
64019;BME280;66942;52.138;5.216;2023-04-27T03:46:28;102150.0;;;6.68;53.45
64019;BME280;66942;52.138;5.216;2023-04-27T03:48:05;102151.0;;;6.61;53.99
64019;BME280;66942;52.138;5.216;2023-04-27T03:49:40;102153.0;;;6.59;53.78
64019;BME280;66942;52.138;5.216;2023-04-27T03:52:52;102151.0;;;6.63;53.65
64019;BME280;66942;52.138;5.216;2023-04-27T03:54:29;102158.0;;;6.67;53.71
64019;BME280;66942;52.138;5.216;2023-04-27T03:56:06;102157.0;;;6.75;54.04
64019;BME280;66942;52.138;5.216;2023-04-27T03:59:18;102151.0;;;6.72;53.44
64019;BME280;66942;52.138;5.216;2023-04-27T04:00:54;102159.0;;;6.69;53.95
64019;BME280;66942;52.138;5.216;2023-04-27T04:02:30;102159.0;;;6.68;53.85
64019;BME280;66942;52.138;5.216;2023-04-27T04:04:06;102160.0;;;6.72;53.84
64019;BME280;66942;52.138;5.216;2023-04-27T04:07:18;102162.0;;;6.86;53.33
64019;BME280;66942;52.138;5.216;2023-04-27T04:08:55;102165.0;;;6.73;53.64
64019;BME280;66942;52.138;5.216;2023-04-27T04:10:31;102164.0;;;6.76;53.41
64019;BME280;66942;52.138;5.216;2023-04-27T04:13:43;102170.0;;;6.69;54.25
64019;BME280;66942;52.138;5.216;2023-04-27T04:15:19;102166.0;;;6.69;54.07
64019;BME280;66942;52.138;5.216;2023-04-27T04:16:55;102172.0;;;6.68;54.24
64019;BME280;66942;52.138;5.216;2023-04-27T04:20:08;102171.0;;;6.65;54.3
64019;BME280;66942;52.138;5.216;2023-04-27T04:21:44;102173.0;;;6.67;54.12
64019;BME280;66942;52.138;5.216;2023-04-27T04:23:21;102176.0;;;6.69;54.25
64019;BME280;66942;52.138;5.216;2023-04-27T04:26:33;102175.0;;;6.68;54.43
64019;BME280;66942;52.138;5.216;2023-04-27T04:28:09;102177.0;;;6.68;53.85
64019;BME280;66942;52.138;5.216;2023-04-27T04:29:45;102182.0;;;6.66;54.31
64019;BME280;66942;52.138;5.216;2023-04-27T04:31:21;102184.0;;;6.68;53.84
64019;BME280;66942;52.138;5.216;2023-04-27T04:34:34;102185.0;;;6.68;53.77
64019;BME280;66942;52.138;5.216;2023-04-27T04:36:10;102180.0;;;6.75;53.53
64019;BME280;66942;52.138;5.216;2023-04-27T04:37:46;102185.0;;;6.69;53.55
64019;BME280;66942;52.138;5.216;2023-04-27T04:40:58;102186.0;;;6.69;53.97
64019;BME280;66942;52.138;5.216;2023-04-27T04:42:34;102188.0;;;6.72;53.97
64019;BME280;66942;52.138;5.216;2023-04-27T04:44:10;102196.0;;;6.67;53.9
64019;BME280;66942;52.138;5.216;2023-04-27T04:47:22;102194.0;;;6.66;53.56
64019;BME280;66942;52.138;5.216;2023-04-27T04:48:59;102200.0;;;6.65;54.35
64019;BME280;66942;52.138;5.216;2023-04-27T04:50:35;102199.0;;;6.79;53.75
64019;BME280;66942;52.138;5.216;2023-04-27T04:53:47;102198.0;;;6.92;53.59
64019;BME280;66942;52.138;5.216;2023-04-27T04:55:24;102197.0;;;6.98;53.48
64019;BME280;66942;52.138;5.216;2023-04-27T04:57:00;102192.0;;;6.92;53.68
64019;BME280;66942;52.138;5.216;2023-04-27T04:58:36;102191.0;;;7.02;53.71
64019;BME280;66942;52.138;5.216;2023-04-27T05:01:49;102189.0;;;7.41;52.74
64019;BME280;66942;52.138;5.216;2023-04-27T05:03:26;102190.0;;;7.13;53.49
64019;BME280;66942;52.138;5.216;2023-04-27T05:05:02;102192.0;;;7.33;53.02
64019;BME280;66942;52.138;5.216;2023-04-27T05:08:15;102188.0;;;7.74;52.15
64019;BME280;66942;52.138;5.216;2023-04-27T05:09:51;102186.0;;;7.94;51.63
64019;BME280;66942;52.138;5.216;2023-04-27T05:11:27;102193.0;;;7.63;52.34
64019;BME280;66942;52.138;5.216;2023-04-27T05:14:40;102191.0;;;7.48;52.6
64019;BME280;66942;52.138;5.216;2023-04-27T05:16:16;102189.0;;;7.43;52.91
64019;BME280;66942;52.138;5.216;2023-04-27T05:17:53;102189.0;;;7.41;53.11
64019;BME280;66942;52.138;5.216;2023-04-27T05:19:29;102188.0;;;7.49;53.62
64019;BME280;66942;52.138;5.216;2023-04-27T05:22:48;102194.0;;;7.7;53.14
64019;BME280;66942;52.138;5.216;2023-04-27T05:24:24;102190.0;;;7.63;53.58
64019;BME280;66942;52.138;5.216;2023-04-27T05:26:00;102192.0;;;7.62;54.37
64019;BME280;66942;52.138;5.216;2023-04-27T05:29:13;102192.0;;;7.67;54.03
64019;BME280;66942;52.138;5.216;2023-04-27T05:30:49;102196.0;;;7.76;53.88
64019;BME280;66942;52.138;5.216;2023-04-27T05:32:25;102191.0;;;8.13;53.06
64019;BME280;66942;52.138;5.216;2023-04-27T05:35:37;102197.0;;;8.48;52.33
64019;BME280;66942;52.138;5.216;2023-04-27T05:37:13;102205.0;;;8.72;51.97
64019;BME280;66942;52.138;5.216;2023-04-27T05:38:49;102207.0;;;9.03;51.38
64019;BME280;66942;52.138;5.216;2023-04-27T05:40:26;102201.0;;;9.14;51.25
64019;BME280;66942;52.138;5.216;2023-04-27T05:43:39;102203.0;;;8.98;51.89
64019;BME280;66942;52.138;5.216;2023-04-27T05:45:15;102203.0;;;9.06;52.05
64019;BME280;66942;52.138;5.216;2023-04-27T05:46:51;102200.0;;;9.07;52.73
64019;BME280;66942;52.138;5.216;2023-04-27T05:50:04;102206.0;;;9.06;53.39
64019;BME280;66942;52.138;5.216;2023-04-27T05:51:40;102202.0;;;9.31;52.1
64019;BME280;66942;52.138;5.216;2023-04-27T05:53:16;102202.0;;;9.68;51.38
64019;BME280;66942;52.138;5.216;2023-04-27T05:56:29;102198.0;;;9.72;51.47
64019;BME280;66942;52.138;5.216;2023-04-27T05:58:05;102196.0;;;9.9;50.93
64019;BME280;66942;52.138;5.216;2023-04-27T05:59:41;102196.0;;;9.98;51.48
64019;BME280;66942;52.138;5.216;2023-04-27T06:01:18;102194.0;;;9.98;51.6
64019;BME280;66942;52.138;5.216;2023-04-27T06:04:30;102191.0;;;10.31;50.77
64019;BME280;66942;52.138;5.216;2023-04-27T06:06:06;102192.0;;;10.38;50.41
64019;BME280;66942;52.138;5.216;2023-04-27T06:07:42;102190.0;;;10.32;51.54
64019;BME280;66942;52.138;5.216;2023-04-27T06:10:55;102195.0;;;10.47;52.41
64019;BME280;66942;52.138;5.216;2023-04-27T06:12:31;102196.0;;;10.77;50.68
64019;BME280;66942;52.138;5.216;2023-04-27T06:14:07;102195.0;;;11.26;49.47
64019;BME280;66942;52.138;5.216;2023-04-27T06:17:20;102191.0;;;10.88;50.29
64019;BME280;66942;52.138;5.216;2023-04-27T06:18:56;102195.0;;;10.75;50.87
64019;BME280;66942;52.138;5.216;2023-04-27T06:20:32;102194.0;;;11.19;50.41
64019;BME280;66942;52.138;5.216;2023-04-27T06:23:45;102195.0;;;11.53;49.9
64019;BME280;66942;52.138;5.216;2023-04-27T06:25:21;102194.0;;;11.51;50.45
64019;BME280;66942;52.138;5.216;2023-04-27T06:26:57;102196.0;;;11.66;49.61
64019;BME280;66942;52.138;5.216;2023-04-27T06:28:33;102192.0;;;12.02;48.8
64019;BME280;66942;52.138;5.216;2023-04-27T06:31:46;102192.0;;;12.08;48.36
64019;BME280;66942;52.138;5.216;2023-04-27T06:33:22;102194.0;;;12.35;48.3
64019;BME280;66942;52.138;5.216;2023-04-27T06:34:59;102193.0;;;12.7;46.96
64019;BME280;66942;52.138;5.216;2023-04-27T06:38:11;102194.0;;;12.68;46.71
64019;BME280;66942;52.138;5.216;2023-04-27T06:39:47;102194.0;;;12.59;46.7
64019;BME280;66942;52.138;5.216;2023-04-27T06:41:24;102196.0;;;13.05;46.21
64019;BME280;66942;52.138;5.216;2023-04-27T06:44:37;102202.0;;;13.35;46.0
64019;BME280;66942;52.138;5.216;2023-04-27T06:46:13;102200.0;;;13.33;44.19
64019;BME280;66942;52.138;5.216;2023-04-27T06:47:50;102197.0;;;13.54;43.49
64019;BME280;66942;52.138;5.216;2023-04-27T06:49:26;102199.0;;;13.89;42.42
64019;BME280;66942;52.138;5.216;2023-04-27T06:52:39;102193.0;;;13.89;43.32
64019;BME280;66942;52.138;5.216;2023-04-27T06:54:15;102192.0;;;13.86;41.49
64019;BME280;66942;52.138;5.216;2023-04-27T06:55:51;102181.0;;;14.18;40.42
64019;BME280;66942;52.138;5.216;2023-04-27T06:59:04;102176.0;;;14.4;39.03
64019;BME280;66942;52.138;5.216;2023-04-27T07:00:40;102181.0;;;14.62;37.94
64019;BME280;66942;52.138;5.216;2023-04-27T07:02:16;102180.0;;;14.07;36.82
64019;BME280;66942;52.138;5.216;2023-04-27T07:05:28;102186.0;;;14.04;37.42
64019;BME280;66942;52.138;5.216;2023-04-27T07:07:03;102184.0;;;14.92;36.26
64019;BME280;66942;52.138;5.216;2023-04-27T07:08:41;102180.0;;;15.01;36.56
64019;BME280;66942;52.138;5.216;2023-04-27T07:10:18;102181.0;;;15.24;38.1
64019;BME280;66942;52.138;5.216;2023-04-27T07:13:30;102183.0;;;15.45;35.42
64019;BME280;66942;52.138;5.216;2023-04-27T07:15:07;102190.0;;;14.91;35.67
64019;BME280;66942;52.138;5.216;2023-04-27T07:16:45;102197.0;;;15.31;35.17
64019;BME280;66942;52.138;5.216;2023-04-27T07:19:57;102196.0;;;15.36;34.49
64019;BME280;66942;52.138;5.216;2023-04-27T07:21:33;102195.0;;;15.25;35.24
64019;BME280;66942;52.138;5.216;2023-04-27T07:23:09;102190.0;;;15.78;35.67
64019;BME280;66942;52.138;5.216;2023-04-27T07:26:22;102188.0;;;15.59;34.53
64019;BME280;66942;52.138;5.216;2023-04-27T07:27:58;102191.0;;;16.11;34.0
64019;BME280;66942;52.138;5.216;2023-04-27T07:29:34;102182.0;;;16.34;35.39
64019;BME280;66942;52.138;5.216;2023-04-27T07:32:48;102180.0;;;16.34;33.97
64019;BME280;66942;52.138;5.216;2023-04-27T07:34:25;102178.0;;;16.45;33.94
64019;BME280;66942;52.138;5.216;2023-04-27T07:36:02;102180.0;;;16.36;33.32
64019;BME280;66942;52.138;5.216;2023-04-27T07:37:38;102176.0;;;16.9;33.99
64019;BME280;66942;52.138;5.216;2023-04-27T07:40:50;102173.0;;;17.11;34.96
64019;BME280;66942;52.138;5.216;2023-04-27T07:42:26;102169.0;;;17.25;32.28
64019;BME280;66942;52.138;5.216;2023-04-27T07:44:02;102164.0;;;17.37;32.6
64019;BME280;66942;52.138;5.216;2023-04-27T07:47:15;102173.0;;;17.64;32.05
64019;BME280;66942;52.138;5.216;2023-04-27T07:48:51;102171.0;;;17.29;30.23
64019;BME280;66942;52.138;5.216;2023-04-27T07:50:29;102181.0;;;17.53;33.19
64019;BME280;66942;52.138;5.216;2023-04-27T07:53:42;102183.0;;;17.53;31.16
64019;BME280;66942;52.138;5.216;2023-04-27T07:55:19;102178.0;;;17.64;31.21
64019;BME280;66942;52.138;5.216;2023-04-27T07:56:55;102177.0;;;17.61;30.18
64019;BME280;66942;52.138;5.216;2023-04-27T07:58:31;102182.0;;;17.95;29.05
64019;BME280;66942;52.138;5.216;2023-04-27T08:01:44;102180.0;;;18.02;29.29
64019;BME280;66942;52.138;5.216;2023-04-27T08:03:20;102181.0;;;18.16;29.06
64019;BME280;66942;52.138;5.216;2023-04-27T08:04:57;102177.0;;;18.43;31.81
64019;BME280;66942;52.138;5.216;2023-04-27T08:08:09;102175.0;;;18.29;28.97
64019;BME280;66942;52.138;5.216;2023-04-27T08:09:45;102176.0;;;18.03;27.77
64019;BME280;66942;52.138;5.216;2023-04-27T08:11:21;102180.0;;;18.12;28.07
64019;BME280;66942;52.138;5.216;2023-04-27T08:14:33;102187.0;;;18.66;28.6
64019;BME280;66942;52.138;5.216;2023-04-27T08:16:09;102185.0;;;18.8;27.81
64019;BME280;66942;52.138;5.216;2023-04-27T08:17:46;102182.0;;;18.7;29.6
64019;BME280;66942;52.138;5.216;2023-04-27T08:19:22;102187.0;;;18.62;28.28
64019;BME280;66942;52.138;5.216;2023-04-27T08:22:35;102183.0;;;18.96;28.31
64019;BME280;66942;52.138;5.216;2023-04-27T08:24:11;102178.0;;;19.05;28.71
64019;BME280;66942;52.138;5.216;2023-04-27T08:25:47;102180.0;;;18.75;27.17
64019;BME280;66942;52.138;5.216;2023-04-27T08:29:00;102181.0;;;18.86;28.02
64019;BME280;66942;52.138;5.216;2023-04-27T08:30:37;102170.0;;;19.2;27.13
64019;BME280;66942;52.138;5.216;2023-04-27T08:32:13;102172.0;;;19.36;27.19
64019;BME280;66942;52.138;5.216;2023-04-27T08:35:26;102164.0;;;18.79;27.48
64019;BME280;66942;52.138;5.216;2023-04-27T08:37:02;102167.0;;;19.29;28.93
64019;BME280;66942;52.138;5.216;2023-04-27T08:38:38;102167.0;;;19.05;27.58
64019;BME280;66942;52.138;5.216;2023-04-27T08:40:14;102167.0;;;19.43;28.02
64019;BME280;66942;52.138;5.216;2023-04-27T08:43:31;102163.0;;;19.63;28.62
64019;BME280;66942;52.138;5.216;2023-04-27T08:45:09;102160.0;;;19.39;27.44
64019;BME280;66942;52.138;5.216;2023-04-27T08:46:46;102164.0;;;19.98;27.09
64019;BME280;66942;52.138;5.216;2023-04-27T08:49:58;102160.0;;;19.61;29.66
64019;BME280;66942;52.138;5.216;2023-04-27T08:51:34;102158.0;;;19.43;26.79
64019;BME280;66942;52.138;5.216;2023-04-27T08:53:18;102161.0;;;19.52;26.47
64019;BME280;66942;52.138;5.216;2023-04-27T08:54:54;102156.0;;;19.16;27.28
64019;BME280;66942;52.138;5.216;2023-04-27T08:58:07;102160.0;;;19.53;28.56
64019;BME280;66942;52.138;5.216;2023-04-27T08:59:43;102156.0;;;19.77;29.32
64019;BME280;66942;52.138;5.216;2023-04-27T09:01:20;102159.0;;;19.59;26.77
64019;BME280;66942;52.138;5.216;2023-04-27T09:04:37;102162.0;;;19.66;26.21
64019;BME280;66942;52.138;5.216;2023-04-27T09:06:14;102155.0;;;19.73;26.65
64019;BME280;66942;52.138;5.216;2023-04-27T09:07:59;102161.0;;;19.04;26.97
64019;BME280;66942;52.138;5.216;2023-04-27T09:09:35;102156.0;;;19.54;30.16
64019;BME280;66942;52.138;5.216;2023-04-27T09:12:57;102155.0;;;19.73;27.27
64019;BME280;66942;52.138;5.216;2023-04-27T09:14:34;102152.0;;;19.91;25.87
64019;BME280;66942;52.138;5.216;2023-04-27T09:16:11;102151.0;;;19.79;27.75
64019;BME280;66942;52.138;5.216;2023-04-27T09:19:29;102153.0;;;19.5;28.08
64019;BME280;66942;52.138;5.216;2023-04-27T09:21:05;102150.0;;;19.96;25.75
64019;BME280;66942;52.138;5.216;2023-04-27T09:22:42;102150.0;;;20.21;26.22
64019;BME280;66942;52.138;5.216;2023-04-27T09:24:19;102145.0;;;20.51;26.57
64019;BME280;66942;52.138;5.216;2023-04-27T09:27:32;102143.0;;;20.27;26.43
64019;BME280;66942;52.138;5.216;2023-04-27T09:29:08;102143.0;;;20.67;26.68
64019;BME280;66942;52.138;5.216;2023-04-27T09:30:50;102141.0;;;20.0;24.98
64019;BME280;66942;52.138;5.216;2023-04-27T09:34:03;102137.0;;;20.3;25.36
64019;BME280;66942;52.138;5.216;2023-04-27T09:35:40;102141.0;;;20.63;27.36
64019;BME280;66942;52.138;5.216;2023-04-27T09:37:17;102138.0;;;20.73;27.9
64019;BME280;66942;52.138;5.216;2023-04-27T09:38:54;102140.0;;;21.04;24.69
64019;BME280;66942;52.138;5.216;2023-04-27T09:42:07;102139.0;;;20.59;27.0
64019;BME280;66942;52.138;5.216;2023-04-27T09:43:43;102142.0;;;20.02;25.37
64019;BME280;66942;52.138;5.216;2023-04-27T09:45:21;102142.0;;;20.06;25.47
64019;BME280;66942;52.138;5.216;2023-04-27T09:48:37;102140.0;;;20.12;25.71
64019;BME280;66942;52.138;5.216;2023-04-27T09:50:14;102130.0;;;20.06;24.91
64019;BME280;66942;52.138;5.216;2023-04-27T09:51:51;102130.0;;;20.03;26.48
64019;BME280;66942;52.138;5.216;2023-04-27T09:55:15;102125.0;;;20.11;26.71
64019;BME280;66942;52.138;5.216;2023-04-27T09:56:59;102122.0;;;19.95;25.74
64019;BME280;66942;52.138;5.216;2023-04-27T09:58:54;102127.0;;;19.89;25.73
64019;BME280;66942;52.138;5.216;2023-04-27T10:00:47;102121.0;;;20.23;25.16
64019;BME280;66942;52.138;5.216;2023-04-27T10:02:40;102123.0;;;20.11;24.15
64019;BME280;66942;52.138;5.216;2023-04-27T10:04:38;102130.0;;;20.0;24.32
64019;BME280;66942;52.138;5.216;2023-04-27T10:06:50;102128.0;;;20.14;24.91
64019;BME280;66942;52.138;5.216;2023-04-27T10:08:56;102124.0;;;20.72;24.03
64019;BME280;66942;52.138;5.216;2023-04-27T10:10:41;102132.0;;;19.87;23.66
64019;BME280;66942;52.138;5.216;2023-04-27T10:12:20;102131.0;;;19.98;25.54
64019;BME280;66942;52.138;5.216;2023-04-27T10:15:41;102131.0;;;20.07;24.81
64019;BME280;66942;52.138;5.216;2023-04-27T10:17:18;102125.0;;;20.37;24.44
64019;BME280;66942;52.138;5.216;2023-04-27T10:19:08;102126.0;;;20.31;24.38
64019;BME280;66942;52.138;5.216;2023-04-27T10:20:45;102126.0;;;20.54;25.31
64019;BME280;66942;52.138;5.216;2023-04-27T10:24:06;102128.0;;;20.8;24.99
64019;BME280;66942;52.138;5.216;2023-04-27T10:25:45;102130.0;;;20.37;23.32
64019;BME280;66942;52.138;5.216;2023-04-27T10:27:21;102122.0;;;20.74;25.61
64019;BME280;66942;52.138;5.216;2023-04-27T10:30:43;102119.0;;;20.04;23.05
64019;BME280;66942;52.138;5.216;2023-04-27T10:32:23;102126.0;;;20.54;24.2
64019;BME280;66942;52.138;5.216;2023-04-27T10:34:08;102125.0;;;20.02;22.81
64019;BME280;66942;52.138;5.216;2023-04-27T10:35:53;102127.0;;;19.91;22.37
64019;BME280;66942;52.138;5.216;2023-04-27T10:37:37;102122.0;;;20.18;24.14
64019;BME280;66942;52.138;5.216;2023-04-27T10:40:54;102120.0;;;20.79;24.34
64019;BME280;66942;52.138;5.216;2023-04-27T10:42:30;102123.0;;;20.94;25.31
64019;BME280;66942;52.138;5.216;2023-04-27T10:44:15;102125.0;;;20.07;23.26
64019;BME280;66942;52.138;5.216;2023-04-27T10:45:52;102127.0;;;20.91;23.02
64019;BME280;66942;52.138;5.216;2023-04-27T10:49:15;102128.0;;;20.39;23.2
64019;BME280;66942;52.138;5.216;2023-04-27T10:50:51;102122.0;;;20.43;23.8
64019;BME280;66942;52.138;5.216;2023-04-27T10:52:27;102126.0;;;21.07;24.92
64019;BME280;66942;52.138;5.216;2023-04-27T10:55:39;102120.0;;;21.25;21.63
64019;BME280;66942;52.138;5.216;2023-04-27T10:57:15;102117.0;;;21.32;21.14
64019;BME280;66942;52.138;5.216;2023-04-27T10:58:52;102120.0;;;21.57;23.7
64019;BME280;66942;52.138;5.216;2023-04-27T11:00:29;102116.0;;;21.22;22.88
64019;BME280;66942;52.138;5.216;2023-04-27T11:03:42;102119.0;;;21.46;23.87
64019;BME280;66942;52.138;5.216;2023-04-27T11:05:19;102112.0;;;21.52;22.17
64019;BME280;66942;52.138;5.216;2023-04-27T11:06:56;102113.0;;;21.61;23.17
64019;BME280;66942;52.138;5.216;2023-04-27T11:10:19;102106.0;;;21.61;21.64
64019;BME280;66942;52.138;5.216;2023-04-27T11:11:56;102100.0;;;21.2;22.69